Seven Seas Mariner — C6VV8 — position and weather

sailwx.info

Track history (hours):
 
Tides and Currents Weather Stations Pressure Air Temp Water Temp Dewpoint Dewpoint Depression Visibility Wind Speed Wind Dir Waves Ship Positions

Seven Seas Mariner

Last reported at 2017-Dec-09 20:09 UTC. Time now 2017-Dec-14 15:06 UTC.
Position N 17°13' W 063°05'.

Length 216 m; draft 7.2 m.

Type: Ship. MMSI: 311622000.

Date/timePositionNaut miles runAvg speedWind from/ knotsBaromVisibWave heightAir tempDewpointWater temp
2017-Dec-09 20:09N 17°13' W 063°05'419.5
2017-Dec-09 19:56N 17°14' W 063°00'1019.8
2017-Dec-09 19:25N 17°15' W 062°50'5 0.5
2017-Dec-09 09:13N 17°15' W 062°45'1011.6
2017-Dec-09 08:19N 17°07' W 062°52'1911.4
2017-Dec-09 06:41N 16°49' W 062°49'1213.3
2017-Dec-09 05:49N 16°39' W 062°44'412.6
2017-Dec-09 05:28N 16°34' W 062°42'4 8.0
2017-Dec-09 05:00N 16°36' W 062°38'612.8
2017-Dec-09 04:30N 16°41' W 062°35'611.4
2017-Dec-09 04:00N 16°42' W 062°29'511.0
2017-Dec-09 03:31N 16°45' W 062°24'611.9
2017-Dec-09 03:00N 16°49' W 062°20'611.9
2017-Dec-09 02:30N 16°53' W 062°15'611.5
2017-Dec-09 02:01N 16°58' W 062°13'611.4
2017-Dec-09 01:30N 17°04' W 062°11'611.2
2017-Dec-09 01:00N 17°09' W 062°09'611.1
2017-Dec-09 00:30N 17°13' W 062°05'611.7
2017-Dec-09 00:00N 17°11' W 061°59'510.5
2017-Dec-08 23:30N 17°09' W 061°54'3 6.8
2017-Dec-08 23:00N 17°07' W 061°51'0 0.6
2017-Dec-08 22:28N 17°07' W 061°51'0 0.0
2017-Dec-08 22:00N 17°07' W 061°51'0 0.0
2017-Dec-08 21:30N 17°07' W 061°51'0 0.0
2017-Dec-08 21:00N 17°07' W 061°51'0 0.0
2017-Dec-08 20:30N 17°07' W 061°51'0 0.0
2017-Dec-08 19:59N 17°07' W 061°51'0 0.0
2017-Dec-08 19:29N 17°07' W 061°51'0 0.0
2017-Dec-08 18:59N 17°07' W 061°51'0 0.0
2017-Dec-08 18:29N 17°07' W 061°51'0 0.0
2017-Dec-08 17:53N 17°07' W 061°51'0 0.0
2017-Dec-08 17:28N 17°07' W 061°51'0 0.0
2017-Dec-08 16:52N 17°07' W 061°51'0 0.0
2017-Dec-08 16:25N 17°07' W 061°51'0 0.0
2017-Dec-08 15:58N 17°07' W 061°51'0 0.0
2017-Dec-08 15:28N 17°07' W 061°51'0 0.0
2017-Dec-08 15:00N 17°07' W 061°51'0 0.4
2017-Dec-08 14:31N 17°07' W 061°51'3 5.1
2017-Dec-08 14:00N 17°08' W 061°53'4 8.7
2017-Dec-08 13:31N 17°08' W 061°58'714.9
2017-Dec-08 13:01N 17°00' W 061°58'918.1
2017-Dec-08 12:31N 16°51' W 061°59'918.5
2017-Dec-08 12:01N 16°42' W 061°60'918.7
2017-Dec-08 11:31N 16°33' W 062°01'918.3
2017-Dec-08 11:01N 16°23' W 062°01'918.3
2017-Dec-08 10:31N 16°14' W 062°00'10019.1
2017-Dec-08 05:16N 14°42' W 061°20'519.4
2017-Dec-08 05:00N 14°37' W 061°17'918.6
2017-Dec-08 04:31N 14°28' W 061°15'1020.1
2017-Dec-08 04:01N 14°23' W 061°07'1020.6
2017-Dec-08 03:31N 14°16' W 060°59'1020.5
2017-Dec-08 03:01N 14°09' W 060°51'1020.2
2017-Dec-08 02:30N 14°02' W 060°43'  
2017-Dec-03 15:02N 00°11' W 050°47'017.0
2017-Dec-03 15:00N 00°10' W 050°48'816.4
2017-Dec-03 14:30N 00°09' W 050°56'816.7
2017-Dec-03 14:00N 00°02' W 051°01'511.0
2017-Dec-03 13:30S 00°04' W 050°60'918.6
2017-Dec-03 13:00S 00°13' W 051°03'  
2017-Nov-30 21:54S 03°07' W 059°53'513.7
2017-Nov-30 21:30S 03°10' W 059°57'5 9.6
2017-Nov-30 21:00S 03°09' W 060°02'1 0.2
2017-Nov-30 16:12S 03°08' W 060°02'0 0.0
2017-Nov-30 15:58S 03°08' W 060°02'0 0.0
2017-Nov-30 13:10S 03°08' W 060°02'0 0.0
2017-Nov-30 12:07S 03°08' W 060°02'0 0.0
2017-Nov-30 11:55S 03°08' W 060°02'0 0.0
2017-Nov-30 11:30S 03°08' W 060°02'0 0.0
2017-Nov-30 10:58S 03°08' W 060°02'0 0.0
2017-Nov-30 10:30S 03°08' W 060°02'0 0.0
2017-Nov-30 09:59S 03°08' W 060°02'0 0.0
2017-Nov-30 00:44S 03°08' W 060°02'0 0.0
2017-Nov-30 00:28S 03°08' W 060°02'0 0.0
2017-Nov-29 23:55S 03°08' W 060°02'0 0.0
2017-Nov-29 23:25S 03°08' W 060°02'0 0.0
2017-Nov-29 22:55S 03°08' W 060°02'0 0.1
2017-Nov-29 22:19S 03°08' W 060°02'0 0.0
2017-Nov-29 22:00S 03°08' W 060°02'0 0.0
2017-Nov-29 21:24S 03°08' W 060°02'0 0.0
2017-Nov-29 20:57S 03°08' W 060°02'0 0.0
2017-Nov-29 20:30S 03°08' W 060°02'  
Track history (hours):
 
Tides and Currents Weather Stations Pressure Air Temp Water Temp Dewpoint Dewpoint Depression Visibility Wind Speed Wind Dir Waves Ship Positions

Seven Seas Mariner

Last reported at 2017-Dec-09 20:09 UTC. Time now 2017-Dec-14 15:06 UTC.
Position N 17°13' W 063°05'.

Length 216 m; draft 7.2 m.

Type: Ship. MMSI: 311622000.

Date/timePositionNaut miles runAvg speedWind from/ knotsBaromVisibWave heightAir tempDewpointWater temp
2017-Dec-09 20:09N 17°13' W 063°05'419.5
2017-Dec-09 19:56N 17°14' W 063°00'1019.8
2017-Dec-09 19:25N 17°15' W 062°50'5 0.5
2017-Dec-09 09:13N 17°15' W 062°45'1011.6
2017-Dec-09 08:19N 17°07' W 062°52'1911.4
2017-Dec-09 06:41N 16°49' W 062°49'1213.3
2017-Dec-09 05:49N 16°39' W 062°44'412.6
2017-Dec-09 05:28N 16°34' W 062°42'4 8.0
2017-Dec-09 05:00N 16°36' W 062°38'612.8
2017-Dec-09 04:30N 16°41' W 062°35'611.4
2017-Dec-09 04:00N 16°42' W 062°29'511.0
2017-Dec-09 03:31N 16°45' W 062°24'611.9
2017-Dec-09 03:00N 16°49' W 062°20'611.9
2017-Dec-09 02:30N 16°53' W 062°15'611.5
2017-Dec-09 02:01N 16°58' W 062°13'611.4
2017-Dec-09 01:30N 17°04' W 062°11'611.2
2017-Dec-09 01:00N 17°09' W 062°09'611.1
2017-Dec-09 00:30N 17°13' W 062°05'611.7
2017-Dec-09 00:00N 17°11' W 061°59'510.5
2017-Dec-08 23:30N 17°09' W 061°54'3 6.8
2017-Dec-08 23:00N 17°07' W 061°51'0 0.6
2017-Dec-08 22:28N 17°07' W 061°51'0 0.0
2017-Dec-08 22:00N 17°07' W 061°51'0 0.0
2017-Dec-08 21:30N 17°07' W 061°51'0 0.0
2017-Dec-08 21:00N 17°07' W 061°51'0 0.0
2017-Dec-08 20:30N 17°07' W 061°51'0 0.0
2017-Dec-08 19:59N 17°07' W 061°51'0 0.0
2017-Dec-08 19:29N 17°07' W 061°51'0 0.0
2017-Dec-08 18:59N 17°07' W 061°51'0 0.0
2017-Dec-08 18:29N 17°07' W 061°51'0 0.0
2017-Dec-08 17:53N 17°07' W 061°51'0 0.0
2017-Dec-08 17:28N 17°07' W 061°51'0 0.0
2017-Dec-08 16:52N 17°07' W 061°51'0 0.0
2017-Dec-08 16:25N 17°07' W 061°51'0 0.0
2017-Dec-08 15:58N 17°07' W 061°51'0 0.0
2017-Dec-08 15:28N 17°07' W 061°51'0 0.0
2017-Dec-08 15:00N 17°07' W 061°51'0 0.4
2017-Dec-08 14:31N 17°07' W 061°51'3 5.1
2017-Dec-08 14:00N 17°08' W 061°53'4 8.7
2017-Dec-08 13:31N 17°08' W 061°58'714.9
2017-Dec-08 13:01N 17°00' W 061°58'918.1
2017-Dec-08 12:31N 16°51' W 061°59'918.5
2017-Dec-08 12:01N 16°42' W 061°60'918.7
2017-Dec-08 11:31N 16°33' W 062°01'918.3
2017-Dec-08 11:01N 16°23' W 062°01'918.3
2017-Dec-08 10:31N 16°14' W 062°00'10019.1
2017-Dec-08 05:16N 14°42' W 061°20'519.4
2017-Dec-08 05:00N 14°37' W 061°17'918.6
2017-Dec-08 04:31N 14°28' W 061°15'1020.1
2017-Dec-08 04:01N 14°23' W 061°07'1020.6
2017-Dec-08 03:31N 14°16' W 060°59'1020.5
2017-Dec-08 03:01N 14°09' W 060°51'1020.2
2017-Dec-08 02:30N 14°02' W 060°43'  
2017-Dec-03 15:02N 00°11' W 050°47'017.0
2017-Dec-03 15:00N 00°10' W 050°48'816.4
2017-Dec-03 14:30N 00°09' W 050°56'816.7
2017-Dec-03 14:00N 00°02' W 051°01'511.0
2017-Dec-03 13:30S 00°04' W 050°60'918.6
2017-Dec-03 13:00S 00°13' W 051°03'  
2017-Nov-30 21:54S 03°07' W 059°53'513.7
2017-Nov-30 21:30S 03°10' W 059°57'5 9.6
2017-Nov-30 21:00S 03°09' W 060°02'1 0.2
2017-Nov-30 16:12S 03°08' W 060°02'0 0.0
2017-Nov-30 15:58S 03°08' W 060°02'0 0.0
2017-Nov-30 13:10S 03°08' W 060°02'0 0.0
2017-Nov-30 12:07S 03°08' W 060°02'0 0.0
2017-Nov-30 11:55S 03°08' W 060°02'0 0.0
2017-Nov-30 11:30S 03°08' W 060°02'0 0.0
2017-Nov-30 10:58S 03°08' W 060°02'0 0.0
2017-Nov-30 10:30S 03°08' W 060°02'0 0.0
2017-Nov-30 09:59S 03°08' W 060°02'0 0.0
2017-Nov-30 00:44S 03°08' W 060°02'0 0.0
2017-Nov-30 00:28S 03°08' W 060°02'0 0.0
2017-Nov-29 23:55S 03°08' W 060°02'0 0.0
2017-Nov-29 23:25S 03°08' W 060°02'0 0.0
2017-Nov-29 22:55S 03°08' W 060°02'0 0.1
2017-Nov-29 22:19S 03°08' W 060°02'0 0.0
2017-Nov-29 22:00S 03°08' W 060°02'0 0.0
2017-Nov-29 21:24S 03°08' W 060°02'0 0.0
2017-Nov-29 20:57S 03°08' W 060°02'0 0.0
2017-Nov-29 20:30S 03°08' W 060°02'  

Dump ship's entire track history